Time;durP1;ratioP1;P1;durP2;ratioP2;P2;SDS_P1;SDS_P2;PMS_P1;PMS_P2;Temp;Humidity;BMP_temperature;BMP_pressure;BME280_temperature;BME280_humidity;BME280_pressure;Samples;Min_cycle;Max_cycle;Signal;HPM_P1;HPM_P2
2021/09/03 00:01:39;;;;;;;16.90;8.80;;;;;;;6.60;87.58;98056.77;116241;1184;59894;-76
2021/09/03 00:04:09;;;;;;;13.40;8.50;;;;;;;6.58;86.52;98069.45;116354;1184;71224;-75
2021/09/03 00:06:38;;;;;;;14.30;8.10;;;;;;;6.54;86.61;98071.52;116262;1178;68601;-76
2021/09/03 00:09:08;;;;;;;13.70;7.50;;;;;;;6.50;86.62;98070.58;116327;1185;68425;-75
2021/09/03 00:11:37;;;;;;;15.90;8.60;;;;;;;6.47;87.00;98074.61;116194;1183;59546;-74
2021/09/03 00:14:06;;;;;;;13.50;8.10;;;;;;;6.46;87.16;98076.80;116323;1179;59553;-75
2021/09/03 00:16:37;;;;;;;15.80;7.80;;;;;;;6.43;86.65;98072.31;116318;1185;71134;-75
2021/09/03 00:19:07;;;;;;;18.00;9.60;;;;;;;6.39;86.88;98072.95;116157;1184;68539;-73
2021/09/03 00:21:37;;;;;;;18.60;9.20;;;;;;;6.35;86.51;98075.10;116331;1184;69036;-75
2021/09/03 00:24:06;;;;;;;14.80;8.20;;;;;;;6.30;86.57;98069.37;116302;1184;59571;-75
2021/09/03 00:26:36;;;;;;;14.10;7.60;;;;;;;6.27;86.45;98069.77;116333;1179;59549;-74
2021/09/03 00:29:05;;;;;;;15.40;8.80;;;;;;;6.24;86.96;98061.74;116308;1185;71468;-74
2021/09/03 00:31:34;;;;;;;13.10;8.50;;;;;;;6.22;87.71;98061.75;116288;1180;69124;-75
2021/09/03 00:34:03;;;;;;;14.10;8.00;;;;;;;6.19;87.35;98064.44;116318;1184;69193;-74
2021/09/03 00:36:33;;;;;;;15.80;9.60;;;;;;;6.19;88.16;98065.38;116385;1185;59537;-75
2021/09/03 00:39:04;;;;;;;25.00;9.60;;;;;;;6.17;87.07;98062.24;116342;1185;59543;-74
2021/09/03 00:41:33;;;;;;;15.30;8.50;;;;;;;6.15;87.04;98057.30;116380;1183;71694;-74
2021/09/03 00:44:03;;;;;;;13.50;9.50;;;;;;;6.12;87.03;98053.54;116331;1185;69125;-74
2021/09/03 00:46:32;;;;;;;16.30;10.50;;;;;;;6.11;86.89;98054.33;116304;1180;69022;-74
2021/09/03 00:49:02;;;;;;;16.30;10.50;;;;;;;6.10;87.42;98058.33;116322;1179;59564;-73
2021/09/03 00:51:31;;;;;;;17.60;11.30;;;;;;;6.09;87.09;98048.57;116252;1184;59612;-73
2021/09/03 00:54:01;;;;;;;18.80;10.80;;;;;;;6.10;87.17;98046.06;116324;1179;71328;-74
2021/09/03 00:56:31;;;;;;;;;;;;;;;6.10;87.60;98052.89;116303;1185;69078;-73
2021/09/03 00:59:01;;;;;;;17.40;10.00;;;;;;;6.11;88.26;98058.01;116367;1181;69179;-74
2021/09/03 01:01:31;;;;;;;20.20;10.20;;;;;;;6.16;89.37;98060.75;116392;1184;59540;-73
2021/09/03 01:04:01;;;;;;;14.50;9.50;;;;;;;6.21;90.00;98054.77;116331;1179;59505;-73
2021/09/03 01:06:32;;;;;;;18.50;10.70;;;;;;;6.25;89.61;98052.16;116327;1185;70280;-74
2021/09/03 01:09:03;;;;;;;25.50;13.20;;;;;;;6.37;89.89;98054.81;116256;1184;68203;-73
2021/09/03 01:11:33;;;;;;;25.30;13.80;;;;;;;6.44;89.45;98054.77;116333;1185;68753;-74
2021/09/03 01:14:03;;;;;;;26.00;13.20;;;;;;;6.54;89.28;98057.44;116354;1184;59536;-74
2021/09/03 01:16:34;;;;;;;26.20;15.40;;;;;;;6.59;89.38;98052.61;116358;1179;59530;-73
2021/09/03 01:19:06;;;;;;;22.80;12.60;;;;;;;6.67;88.70;98051.42;116310;1183;70513;-75
2021/09/03 01:21:37;;;;;;;21.70;13.40;;;;;;;6.74;88.84;98047.84;116360;1185;68566;-74
2021/09/03 01:24:06;;;;;;;23.10;14.30;;;;;;;6.78;88.68;98046.71;116133;1183;67333;-75
2021/09/03 01:26:36;;;;;;;26.80;15.30;;;;;;;6.83;88.62;98044.19;116376;1182;59536;-75
2021/09/03 01:29:06;;;;;;;21.50;13.90;;;;;;;6.84;88.06;98050.09;116349;1182;59540;-74
2021/09/03 01:31:36;;;;;;;22.70;13.30;;;;;;;6.84;87.95;98045.76;116356;1185;71336;-75
2021/09/03 01:34:07;;;;;;;20.20;11.60;;;;;;;6.82;87.78;98044.66;116364;1184;69486;-75
2021/09/03 01:36:36;;;;;;;25.30;13.00;;;;;;;6.80;88.16;98039.78;116318;1185;69202;-74
2021/09/03 01:39:06;;;;;;;21.50;12.60;;;;;;;6.80;88.60;98043.87;116298;1184;59530;-75
2021/09/03 01:41:37;;;;;;;20.10;12.90;;;;;;;6.78;88.38;98044.67;116353;1184;59556;-74
2021/09/03 01:44:08;;;;;;;19.00;13.10;;;;;;;6.76;88.79;98041.92;116310;1183;71345;-74
2021/09/03 01:46:38;;;;;;;19.80;11.80;;;;;;;6.75;88.61;98034.23;116309;1185;69124;-75
2021/09/03 01:49:08;;;;;;;22.00;11.40;;;;;;;6.73;87.99;98036.67;116324;1179;68413;-73
2021/09/03 01:51:38;;;;;;;26.30;13.30;;;;;;;6.72;87.97;98039.36;116179;1184;59549;-74
2021/09/03 01:54:07;;;;;;;19.40;12.30;;;;;;;6.70;88.53;98034.73;116134;1184;59532;-75
2021/09/03 01:56:37;;;;;;;19.40;11.70;;;;;;;6.65;87.99;98036.80;116016;1182;69554;-74
2021/09/03 01:59:06;;;;;;;19.90;11.40;;;;;;;6.62;87.84;98041.82;116299;1183;69121;-74
2021/09/03 02:01:36;;;;;;;20.70;11.90;;;;;;;6.59;88.17;98044.52;116199;1185;68520;-74
2021/09/03 02:04:06;;;;;;;26.20;14.50;;;;;;;6.57;87.82;98040.91;116330;1183;59543;-77
2021/09/03 02:06:36;;;;;;;26.00;13.80;;;;;;;6.57;88.46;98041.46;116313;1179;59539;-76
2021/09/03 02:09:06;;;;;;;19.60;12.00;;;;;;;6.55;87.80;98036.98;116313;1180;70804;-75
2021/09/03 02:11:37;;;;;;;20.10;11.70;;;;;;;6.51;87.83;98027.98;116360;1184;69159;-75
2021/09/03 02:14:06;;;;;;;15.90;10.80;;;;;;;6.47;87.87;98034.98;116289;1183;68597;-73
2021/09/03 02:16:36;;;;;;;20.60;10.60;;;;;;;6.44;88.26;98043.38;116351;1184;59865;-76
2021/09/03 02:19:06;;;;;;;18.30;10.10;;;;;;;6.40;87.71;98047.96;116157;1182;59549;-74
2021/09/03 02:21:37;;;;;;;18.80;11.20;;;;;;;6.35;87.63;98036.82;116340;1184;71236;-75
2021/09/03 02:24:07;;;;;;;15.60;10.50;;;;;;;6.31;87.29;98039.90;116124;1183;69086;-75
2021/09/03 02:26:37;;;;;;;19.00;10.90;;;;;;;6.28;88.16;98045.72;116356;1185;68325;-77
2021/09/03 02:29:07;;;;;;;17.80;11.10;;;;;;;6.25;87.95;98039.29;116363;1184;59544;-75
2021/09/03 02:31:37;;;;;;;20.20;12.20;;;;;;;6.20;87.60;98032.85;116318;1182;59551;-76
2021/09/03 02:34:06;;;;;;;21.40;12.00;;;;;;;6.18;87.40;98037.17;116336;1179;70771;-76
2021/09/03 02:36:35;;;;;;;19.60;12.50;;;;;;;6.15;87.46;98034.59;116303;1184;69165;-77
2021/09/03 02:39:06;;;;;;;16.70;10.00;;;;;;;6.12;87.45;98038.08;116067;1185;67435;-76
2021/09/03 02:41:35;;;;;;;19.00;11.10;;;;;;;6.11;88.49;98034.36;116330;1185;59543;-74
2021/09/03 02:44:05;;;;;;;21.50;11.40;;;;;;;6.08;88.15;98033.65;116226;1183;59552;-74
2021/09/03 02:46:34;;;;;;;21.30;12.30;;;;;;;6.08;88.24;98030.74;116255;1184;71163;-75
2021/09/03 02:49:04;;;;;;;26.00;15.20;;;;;;;6.05;88.78;98026.11;116282;1180;68523;-73
2021/09/03 02:51:34;;;;;;;29.10;15.60;;;;;;;6.02;88.71;98023.22;116058;1185;68424;-75
2021/09/03 02:54:04;;;;;;;;;;;;;;;6.04;88.53;98029.73;116182;1185;59515;-75
2021/09/03 02:56:34;;;;;;;25.10;15.90;;;;;;;6.08;89.46;98026.35;116348;1179;59556;-73
2021/09/03 02:59:03;;;;;;;36.50;18.20;;;;;;;6.12;89.68;98019.52;116344;1179;70588;-75
2021/09/03 03:01:33;;;;;;;45.00;22.00;;;;;;;6.16;89.04;98018.88;116369;1184;68313;-75
2021/09/03 03:04:03;;;;;;;39.70;19.40;;;;;;;6.21;88.84;98019.64;116324;1183;67304;-75
2021/09/03 03:06:32;;;;;;;29.00;16.30;;;;;;;6.24;88.90;98026.23;116279;1179;59540;-75
2021/09/03 03:09:02;;;;;;;25.70;14.90;;;;;;;6.24;88.65;98026.55;116316;1184;59548;-75
2021/09/03 03:11:33;;;;;;;34.00;19.40;;;;;;;6.26;89.19;98021.59;116363;1184;70433;-76
2021/09/03 03:14:09;;;;;;;36.10;20.00;;;;;;;6.28;88.76;98020.66;116347;1183;69192;-75
2021/09/03 03:16:40;;;;;;;27.10;16.60;;;;;;;6.31;88.48;98029.45;116269;1183;69271;-76
2021/09/03 03:19:10;;;;;;;25.70;15.50;;;;;;;6.31;89.28;98030.55;116277;1185;59559;-75
2021/09/03 03:21:40;;;;;;;;;;;;;;;6.28;88.74;98028.13;116339;1182;59495;-75
2021/09/03 03:24:10;;;;;;;33.40;18.20;;;;;;;6.29;88.62;98023.25;116216;1185;70517;-75
2021/09/03 03:26:39;;;;;;;31.20;18.80;;;;;;;6.31;88.29;98023.79;116202;1185;69121;-75
2021/09/03 03:29:10;;;;;;;29.80;17.60;;;;;;;6.32;88.32;98030.08;116346;1183;69662;-75
2021/09/03 03:31:40;;;;;;;25.00;15.20;;;;;;;6.35;88.92;98029.36;116363;1185;59552;-74
2021/09/03 03:34:10;;;;;;;32.00;15.80;;;;;;;6.38;88.60;98030.36;116369;1182;59492;-75
2021/09/03 03:36:40;;;;;;;32.90;16.60;;;;;;;6.41;88.53;98032.87;116376;1185;71351;-75
2021/09/03 03:39:09;;;;;;;32.60;16.50;;;;;;;6.45;88.33;98030.33;116311;1179;69183;-75
2021/09/03 03:41:39;;;;;;;28.90;17.10;;;;;;;6.49;88.74;98038.67;116338;1179;69233;-74
2021/09/03 03:44:11;;;;;;;26.90;15.80;;;;;;;6.53;88.55;98036.45;116340;1179;59549;-73
2021/09/03 03:46:41;;;;;;;27.00;17.00;;;;;;;6.57;89.50;98031.79;116219;1180;59489;-74
2021/09/03 03:49:11;;;;;;;26.20;15.60;;;;;;;6.60;88.78;98037.27;116304;1184;71195;-74
2021/09/03 03:51:40;;;;;;;22.90;13.00;;;;;;;6.62;88.76;98041.83;116359;1185;69170;-73
2021/09/03 03:54:10;;;;;;;20.20;13.10;;;;;;;6.60;88.25;98043.64;116331;1185;69156;-75
2021/09/03 03:56:39;;;;;;;21.30;12.70;;;;;;;6.56;88.05;98034.47;116324;1184;59533;-75
2021/09/03 03:59:09;;;;;;;17.80;10.40;;;;;;;6.53;87.80;98038.26;116367;1183;59540;-73
2021/09/03 04:01:38;;;;;;;19.70;12.00;;;;;;;6.52;88.60;98042.98;116357;1184;71334;-75
2021/09/03 04:04:07;;;;;;;19.60;10.70;;;;;;;6.59;88.58;98035.55;116203;1179;69134;-73
2021/09/03 04:06:37;;;;;;;18.30;10.80;;;;;;;6.68;88.55;98034.34;116281;1185;69003;-73
2021/09/03 04:09:07;;;;;;;18.40;11.10;;;;;;;6.73;88.70;98036.83;116296;1181;59972;-75
2021/09/03 04:11:36;;;;;;;15.20;10.60;;;;;;;6.77;88.29;98039.80;116340;1179;59514;-75
2021/09/03 04:14:06;;;;;;;22.20;13.10;;;;;;;6.87;88.21;98024.66;116203;1180;70409;-76
2021/09/03 04:16:36;;;;;;;20.20;12.70;;;;;;;6.99;88.42;98026.40;116363;1185;69178;-75
2021/09/03 04:19:05;;;;;;;25.20;12.90;;;;;;;7.10;88.97;98033.27;116320;1184;68108;-75
2021/09/03 04:21:35;;;;;;;19.70;12.90;;;;;;;7.21;88.65;98029.35;116325;1183;59561;-73
2021/09/03 04:24:04;;;;;;;23.40;13.00;;;;;;;7.35;88.35;98032.00;116336;1184;59538;-75
2021/09/03 04:26:34;;;;;;;19.70;12.60;;;;;;;7.56;88.13;98019.08;116247;1179;70584;-75
2021/09/03 04:29:03;;;;;;;19.10;12.10;;;;;;;7.78;87.62;98022.05;116324;1179;68242;-75
2021/09/03 04:31:32;;;;;;;19.00;12.20;;;;;;;8.01;86.88;98025.70;116269;1184;67435;-74
2021/09/03 04:34:02;;;;;;;16.00;10.80;;;;;;;8.17;86.29;98025.30;116293;1180;59501;-75
2021/09/03 04:36:31;;;;;;;15.10;10.20;;;;;;;8.28;85.95;98019.60;116326;1183;59502;-75
2021/09/03 04:39:00;;;;;;;13.00;9.70;;;;;;;8.45;85.53;98025.66;116307;1185;69673;-74
2021/09/03 04:41:30;;;;;;;13.40;9.00;;;;;;;8.58;84.59;98028.90;116342;1182;69262;-75
2021/09/03 04:43:59;;;;;;;13.90;9.80;;;;;;;8.68;84.84;98032.58;116318;1183;68993;-75
2021/09/03 04:46:28;;;;;;;13.30;9.00;;;;;;;8.94;84.87;98033.98;116186;1179;59559;-77
2021/09/03 04:48:57;;;;;;;17.30;8.60;;;;;;;9.22;83.51;98034.86;116329;1179;59511;-75
2021/09/03 04:51:26;;;;;;;13.20;8.60;;;;;;;9.42;83.18;98043.10;116342;1179;71315;-74
2021/09/03 04:53:56;;;;;;;13.20;7.90;;;;;;;9.51;82.37;98049.52;116173;1184;69111;-72
2021/09/03 04:56:25;;;;;;;11.60;7.80;;;;;;;9.54;81.92;98046.87;116280;1180;69205;-74
2021/09/03 04:58:58;;;;;;;11.20;7.80;;;;;;;9.64;82.29;98048.36;116326;1183;59558;-73
2021/09/03 05:01:28;;;;;;;15.90;8.20;;;;;;;9.70;81.84;98044.63;116293;1178;59559;-74
2021/09/03 05:03:57;;;;;;;10.70;7.40;;;;;;;9.98;81.25;98043.54;116325;1183;71370;-73
2021/09/03 05:06:26;;;;;;;11.90;7.30;;;;;;;10.30;79.45;98044.18;116365;1182;69117;-76
2021/09/03 05:08:55;;;;;;;12.70;7.80;;;;;;;10.76;81.03;98039.96;116238;1183;69025;-75
2021/09/03 05:11:24;;;;;;;12.10;7.40;;;;;;;11.15;79.14;98034.02;116279;1183;59562;-76
2021/09/03 05:13:53;;;;;;;11.10;7.30;;;;;;;11.49;76.46;98035.45;116311;1182;59550;-74
2021/09/03 05:16:22;;;;;;;15.70;7.40;;;;;;;11.87;76.93;98037.48;116242;1183;71374;-75
2021/09/03 05:18:52;;;;;;;12.00;7.30;;;;;;;12.17;74.47;98037.53;116258;1183;68466;-74
2021/09/03 05:21:22;;;;;;;13.60;6.80;;;;;;;12.44;74.53;98034.20;116293;1183;67323;-73
2021/09/03 05:23:51;;;;;;;14.80;7.40;;;;;;;12.88;74.62;98035.66;116286;1183;59530;-74
2021/09/03 05:26:20;;;;;;;10.60;6.10;;;;;;;13.11;72.72;98043.66;116337;1179;59591;-74
2021/09/03 05:28:49;;;;;;;13.90;6.40;;;;;;;13.38;70.87;98045.80;116333;1183;71430;-75
2021/09/03 05:31:18;;;;;;;9.40;5.80;;;;;;;13.65;69.81;98047.20;115969;1185;69129;-74
2021/09/03 05:33:47;;;;;;;12.50;6.40;;;;;;;13.83;66.71;98041.69;116256;1183;68682;-76
2021/09/03 05:36:16;;;;;;;9.60;6.30;;;;;;;14.10;68.03;98045.08;116312;1183;59530;-75
2021/09/03 05:38:45;;;;;;;10.20;5.60;;;;;;;14.14;65.97;98044.48;116258;1182;59549;-76
2021/09/03 05:41:14;;;;;;;11.00;5.70;;;;;;;14.23;65.45;98047.48;116340;1183;70593;-72
2021/09/03 05:43:43;;;;;;;12.40;5.30;;;;;;;14.51;65.74;98048.65;116181;1184;69215;-75
2021/09/03 05:46:12;;;;;;;11.30;6.20;;;;;;;14.78;65.02;98047.84;116215;1185;69081;-73
2021/09/03 05:48:41;;;;;;;9.20;5.70;;;;;;;15.05;65.42;98047.40;116279;1183;59558;-75
2021/09/03 05:51:10;;;;;;;8.80;5.90;;;;;;;15.31;63.15;98047.30;116335;1182;59520;-75
2021/09/03 05:53:39;;;;;;;9.40;5.20;;;;;;;15.30;61.30;98051.05;116329;1179;70499;-77
2021/09/03 05:56:08;;;;;;;9.00;5.20;;;;;;;15.23;61.41;98051.66;116325;1184;69241;-76
2021/09/03 05:58:37;;;;;;;13.00;5.60;;;;;;;15.32;61.05;98054.76;116349;1184;68399;-74
2021/09/03 06:01:07;;;;;;;10.70;5.10;;;;;;;15.58;60.77;98055.11;116354;1183;59534;-76
2021/09/03 06:03:36;;;;;;;12.50;8.10;;;;;;;15.61;59.92;98055.31;116292;1179;59482;-74
2021/09/03 06:06:05;;;;;;;11.10;8.20;;;;;;;15.76;60.46;98052.89;116239;1184;71338;-75
2021/09/03 06:08:34;;;;;;;10.30;5.50;;;;;;;15.98;59.66;98049.36;116271;1179;68532;-76
2021/09/03 06:11:03;;;;;;;14.20;6.40;;;;;;;15.87;58.91;98046.36;116298;1184;69252;-76
2021/09/03 06:13:36;;;;;;;9.70;5.70;;;;;;;15.61;58.31;98047.14;116312;1179;59556;-74
2021/09/03 06:16:05;;;;;;;12.20;5.40;;;;;;;15.59;58.37;98050.30;116198;1184;59614;-75
2021/09/03 06:18:34;;;;;;;11.80;5.40;;;;;;;15.98;58.72;98051.38;116277;1179;71025;-73
2021/09/03 06:21:03;;;;;;;11.60;5.00;;;;;;;16.21;58.03;98052.58;116293;1180;68418;-75
2021/09/03 06:23:32;;;;;;;9.70;5.20;;;;;;;16.40;57.36;98053.64;116259;1179;68760;-74
2021/09/03 06:26:01;;;;;;;11.70;5.80;;;;;;;16.45;57.03;98049.61;116258;1183;59612;-73
2021/09/03 06:28:30;;;;;;;11.20;5.40;;;;;;;16.96;57.08;98046.61;116263;1182;59551;-73
2021/09/03 06:30:59;;;;;;;13.80;5.90;;;;;;;17.35;56.18;98046.00;116279;1183;70391;-74
2021/09/03 06:33:28;;;;;;;11.60;4.80;;;;;;;17.36;53.91;98047.73;116274;1183;68553;-74
2021/09/03 06:35:57;;;;;;;11.30;5.70;;;;;;;17.63;54.00;98052.76;116284;1183;69530;-73
2021/09/03 06:38:27;;;;;;;9.10;5.10;;;;;;;17.50;54.12;98052.02;116299;1183;59542;-74
2021/09/03 06:40:56;;;;;;;11.00;4.90;;;;;;;17.69;54.20;98047.54;116317;1185;59545;-74
2021/09/03 06:43:25;;;;;;;9.50;5.10;;;;;;;17.83;53.17;98050.54;116314;1183;71175;-71
2021/09/03 06:45:54;;;;;;;11.30;5.30;;;;;;;18.06;52.58;98047.43;116318;1183;68957;-77
2021/09/03 06:48:24;;;;;;;12.60;4.80;;;;;;;18.19;52.19;98047.73;116255;1180;68664;-74
2021/09/03 06:50:53;;;;;;;10.60;4.20;;;;;;;18.27;50.75;98042.03;116286;1183;59921;-76
2021/09/03 06:53:22;;;;;;;17.40;15.10;;;;;;;18.22;51.39;98046.45;116295;1183;59462;-73
2021/09/03 06:55:51;;;;;;;8.80;5.20;;;;;;;18.17;51.41;98048.73;116287;1182;70570;-73
2021/09/03 06:58:20;;;;;;;12.90;5.40;;;;;;;18.37;50.96;98044.98;116282;1182;69088;-73
2021/09/03 07:00:49;;;;;;;10.30;5.30;;;;;;;18.60;50.11;98043.88;116263;1183;69226;-72
2021/09/03 07:03:18;;;;;;;8.30;4.70;;;;;;;18.91;50.09;98047.67;116187;1179;59569;-72
2021/09/03 07:05:47;;;;;;;8.30;4.70;;;;;;;18.88;49.78;98047.55;116331;1185;59539;-74
2021/09/03 07:08:16;;;;;;;12.40;4.90;;;;;;;19.33;48.98;98050.30;116267;1183;71462;-71
2021/09/03 07:10:45;;;;;;;10.10;5.50;;;;;;;19.64;47.79;98054.30;116249;1183;68968;-72
2021/09/03 07:13:16;;;;;;;11.60;4.50;;;;;;;19.83;47.29;98048.46;116193;1185;68304;-73
2021/09/03 07:15:45;;;;;;;8.40;4.60;;;;;;;19.42;47.90;98047.23;116315;1183;59527;-74
2021/09/03 07:18:14;;;;;;;7.40;4.70;;;;;;;19.87;47.26;98044.98;116276;1184;59549;-74
2021/09/03 07:20:43;;;;;;;11.40;4.90;;;;;;;20.20;46.72;98050.16;116227;1185;71560;-74
2021/09/03 07:23:12;;;;;;;12.20;5.20;;;;;;;20.66;46.46;98048.98;116309;1178;68446;-73
2021/09/03 07:25:41;;;;;;;11.10;5.60;;;;;;;21.05;45.12;98044.85;116272;1184;69263;-76
2021/09/03 07:28:10;;;;;;;9.30;5.40;;;;;;;20.98;45.28;98046.23;116216;1182;59527;-74
2021/09/03 07:30:39;;;;;;;13.80;6.00;;;;;;;20.94;45.22;98047.20;116241;1185;59510;-75
2021/09/03 07:33:09;;;;;;;12.20;5.00;;;;;;;21.15;44.69;98045.92;116287;1180;71505;-74
2021/09/03 07:35:38;;;;;;;10.60;5.10;;;;;;;20.88;44.72;98047.29;116323;1182;68985;-74
2021/09/03 07:38:10;;;;;;;11.20;5.20;;;;;;;20.79;44.72;98044.73;116284;1182;69037;-73
2021/09/03 07:40:39;;;;;;;9.90;4.80;;;;;;;20.76;45.72;98039.49;116321;1179;59565;-73
2021/09/03 07:43:08;;;;;;;9.80;5.60;;;;;;;21.34;43.92;98041.42;116119;1185;59529;-73
2021/09/03 07:45:39;;;;;;;9.70;4.60;;;;;;;20.84;44.18;98042.73;116292;1184;70669;-76
2021/09/03 07:48:08;;;;;;;11.10;5.70;;;;;;;20.28;45.17;98041.48;116289;1183;68949;-73
2021/09/03 07:50:38;;;;;;;10.20;5.40;;;;;;;20.24;45.70;98040.77;116247;1180;68680;-73
2021/09/03 07:53:07;;;;;;;9.10;5.40;;;;;;;20.54;45.36;98043.58;116140;1185;59777;-73
2021/09/03 07:55:44;;;;;;;9.60;5.00;;;;;;;20.87;44.70;98035.57;116281;1180;59584;-76
2021/09/03 07:58:14;;;;;;;8.90;5.30;;;;;;;20.72;44.03;98038.38;116249;1183;71409;-77
2021/09/03 08:00:43;;;;;;;8.80;5.10;;;;;;;21.08;43.46;98032.40;116204;1182;68491;-74
2021/09/03 08:03:12;;;;;;;12.30;5.40;;;;;;;20.36;43.28;98029.36;116222;1182;68336;-76
2021/09/03 08:05:41;;;;;;;7.50;4.30;;;;;;;21.01;43.89;98027.56;116257;1182;59532;-76
2021/09/03 08:08:10;;;;;;;8.90;3.70;;;;;;;21.60;42.86;98026.17;116246;1183;59541;-72
2021/09/03 08:10:39;;;;;;;8.80;4.20;;;;;;;22.00;42.66;98024.77;116224;1183;71445;-72
2021/09/03 08:13:12;;;;;;;8.20;4.10;;;;;;;22.31;41.23;98022.95;116262;1179;69181;-73
2021/09/03 08:15:41;;;;;;;7.70;4.30;;;;;;;22.77;40.57;98031.84;116226;1183;69040;-76
2021/09/03 08:18:11;;;;;;;8.40;4.40;;;;;;;22.99;39.56;98027.01;116229;1179;59528;-73
2021/09/03 08:20:42;;;;;;;6.10;4.00;;;;;;;23.13;40.00;98022.56;116253;1183;59527;-72
2021/09/03 08:23:12;;;;;;;7.80;3.80;;;;;;;23.39;39.63;98020.27;116246;1179;70540;-76
2021/09/03 08:25:41;;;;;;;;;;;;;;;22.77;39.51;98021.53;116398;1178;68390;-75
2021/09/03 08:28:10;;;;;;;6.60;3.90;;;;;;;22.55;40.59;98020.59;116051;1182;68987;-71
2021/09/03 08:30:38;;;;;;;9.90;4.40;;;;;;;22.25;40.31;98016.34;116105;1179;59539;-72
2021/09/03 08:33:07;;;;;;;8.80;4.90;;;;;;;22.04;41.45;98013.56;116134;1184;59556;-72
2021/09/03 08:35:38;;;;;;;8.50;4.40;;;;;;;21.79;42.05;98011.59;116160;1180;71250;-73
2021/09/03 08:38:08;;;;;;;7.50;4.60;;;;;;;21.67;42.80;98010.23;116211;1184;69006;-73
2021/09/03 08:40:37;;;;;;;9.60;4.90;;;;;;;21.57;42.69;98007.23;115996;1185;69267;-75
2021/09/03 08:43:07;;;;;;;9.50;4.80;;;;;;;21.53;43.10;98008.54;116166;1180;59521;-74
2021/09/03 08:45:37;;;;;;;8.30;4.50;;;;;;;21.59;42.86;98008.70;116190;1179;58994;-74
2021/09/03 08:48:07;;;;;;;8.00;4.80;;;;;;;21.45;42.27;98005.00;116075;1179;70641;-75
2021/09/03 08:50:37;;;;;;;8.70;4.50;;;;;;;21.38;42.32;98001.16;116224;1184;67973;-78
2021/09/03 08:53:06;;;;;;;8.20;5.00;;;;;;;21.72;42.11;97998.64;116076;1183;68498;-72
2021/09/03 08:55:35;;;;;;;9.30;4.50;;;;;;;22.57;39.52;97997.24;116170;1182;59541;-76
2021/09/03 08:58:04;;;;;;;9.60;4.50;;;;;;;23.19;38.18;97997.96;116214;1183;59520;-75
2021/09/03 09:00:35;;;;;;;9.30;3.90;;;;;;;23.79;37.36;97998.32;116196;1185;70986;-75
2021/09/03 09:03:06;;;;;;;8.30;5.30;;;;;;;24.13;35.26;97994.95;116193;1185;67650;-75
2021/09/03 09:05:54;;;;;;;12.90;5.80;;;;;;;24.43;34.98;97986.73;116193;1179;69050;-74
2021/09/03 09:08:27;;;;;;;7.40;4.60;;;;;;;24.04;35.54;97984.89;116107;1179;59558;-77
2021/09/03 09:10:59;;;;;;;10.00;5.40;;;;;;;23.58;36.36;97983.23;116176;1181;59560;-77
2021/09/03 09:13:30;;;;;;;10.80;4.90;;;;;;;23.51;35.94;97980.08;116092;1185;70425;-74
2021/09/03 09:16:09;;;;;;;11.00;5.70;;;;;;;22.87;37.56;97980.10;116141;1185;68747;-73
2021/09/03 09:18:44;;;;;;;10.40;5.60;;;;;;;23.04;37.63;97975.45;116143;1184;69029;-76
2021/09/03 09:21:23;;;;;;;8.60;6.10;;;;;;;23.09;38.03;97974.02;116154;1184;59521;-75
2021/09/03 09:23:58;;;;;;;9.00;5.40;;;;;;;23.05;38.00;97969.45;116179;1183;59470;-74
2021/09/03 09:26:48;;;;;;;12.20;6.10;;;;;;;22.68;38.41;97964.90;116151;1179;71241;-74
2021/09/03 09:29:18;;;;;;;10.40;5.60;;;;;;;22.23;39.27;97960.08;116112;1185;68444;-72
2021/09/03 09:31:51;;;;;;;11.20;5.50;;;;;;;22.25;40.03;97961.08;116101;1184;69236;-73
2021/09/03 09:34:23;;;;;;;11.50;5.40;;;;;;;22.81;39.90;97957.58;116187;1185;59543;-75
2021/09/03 09:36:54;;;;;;;10.60;6.00;;;;;;;23.52;38.04;97953.46;116157;1182;59495;-75
2021/09/03 09:39:24;;;;;;;11.90;6.10;;;;;;;23.69;37.44;97954.50;116192;1184;71049;-73
2021/09/03 09:42:03;;;;;;;9.50;5.30;;;;;;;23.77;37.15;97946.77;116209;1184;69290;-77
2021/09/03 09:44:34;;;;;;;7.10;4.30;;;;;;;23.75;36.49;97945.17;116151;1179;68070;-74
2021/09/03 09:47:07;;;;;;;5.90;3.60;;;;;;;23.78;35.86;97942.03;116195;1179;59583;-75
2021/09/03 09:49:36;;;;;;;8.20;3.90;;;;;;;23.89;34.87;97942.97;116181;1179;59546;-74
2021/09/03 09:52:06;;;;;;;7.90;3.70;;;;;;;24.29;34.44;97941.05;116156;1184;71999;-76
2021/09/03 09:54:35;;;;;;;6.10;3.60;;;;;;;25.02;33.94;97937.13;116139;1184;68425;-75
2021/09/03 09:57:05;;;;;;;6.60;3.50;;;;;;;25.15;32.39;97928.96;116058;1179;68497;-74
2021/09/03 09:59:35;;;;;;;7.50;4.00;;;;;;;24.93;32.70;97927.91;116151;1183;59527;-76
2021/09/03 10:02:05;;;;;;;6.50;3.60;;;;;;;24.68;33.88;97924.06;116146;1179;59555;-74
2021/09/03 10:04:36;;;;;;;7.20;4.10;;;;;;;24.66;34.64;97927.27;116178;1184;70600;-75
2021/09/03 10:07:06;;;;;;;5.40;3.50;;;;;;;24.89;33.91;97928.15;116206;1184;69166;-75
2021/09/03 10:09:36;;;;;;;5.80;3.80;;;;;;;24.33;34.68;97920.85;116131;1179;69017;-75
2021/09/03 10:12:06;;;;;;;6.60;3.70;;;;;;;23.99;34.84;97919.05;116181;1185;59526;-74
2021/09/03 10:14:36;;;;;;;6.50;3.70;;;;;;;24.57;34.96;97918.81;116051;1179;59533;-80
2021/09/03 10:17:08;;;;;;;6.70;3.60;;;;;;;25.63;32.96;97918.15;116181;1185;71374;-77
2021/09/03 10:19:43;;;;;;;7.00;4.30;;;;;;;26.47;31.11;97909.44;116120;1185;69392;-78
2021/09/03 10:22:14;;;;;;;5.50;3.10;;;;;;;27.00;29.53;97913.69;115959;1182;69041;-73
2021/09/03 10:24:45;;;;;;;6.00;3.10;;;;;;;27.15;28.27;97909.27;116046;1185;59596;-76
2021/09/03 10:27:15;;;;;;;5.30;3.20;;;;;;;26.70;27.74;97903.11;116172;1182;59514;-76
2021/09/03 10:29:48;;;;;;;5.90;4.10;;;;;;;26.88;28.48;97898.11;116119;1183;70443;-77
2021/09/03 10:32:21;;;;;;;4.80;3.10;;;;;;;27.45;30.09;97897.39;116224;1182;68505;-78
2021/09/03 10:34:54;;;;;;;8.00;3.40;;;;;;;28.05;28.26;97887.95;116196;1183;69070;-79
2021/09/03 10:37:25;;;;;;;9.50;4.30;;;;;;;28.54;26.77;97891.18;116220;1183;59540;-78
2021/09/03 10:40:05;;;;;;;5.30;3.40;;;;;;;28.27;27.63;97890.73;116198;1183;59501;-74
2021/09/03 10:42:35;;;;;;;8.60;3.80;;;;;;;26.56;27.76;97885.42;116132;1179;71170;-80
2021/09/03 10:45:11;;;;;;;5.20;2.90;;;;;;;26.28;29.51;97886.41;116149;1185;68891;-75
2021/09/03 10:47:47;;;;;;;5.10;3.10;;;;;;;26.83;30.14;97887.81;116198;1184;69777;-76
2021/09/03 10:50:43;;;;;;;6.30;3.40;;;;;;;27.72;30.33;97882.36;116191;1183;59501;-80
2021/09/03 10:53:15;;;;;;;4.40;3.00;;;;;;;28.16;28.81;97875.00;116179;1179;59536;-74
2021/09/03 10:55:54;;;;;;;4.70;2.80;;;;;;;28.42;28.76;97876.06;116258;1183;71241;-75
2021/09/03 10:58:48;;;;;;;6.10;3.00;;;;;;;28.59;27.09;97870.51;116212;1180;69134;-76
2021/09/03 11:01:17;;;;;;;6.70;3.10;;;;;;;28.33;26.56;97872.79;116157;1183;69241;-79
2021/09/03 11:03:53;;;;;;;5.30;2.90;;;;;;;27.81;27.04;97871.67;116167;1179;59543;-75
2021/09/03 11:06:26;;;;;;;7.80;3.00;;;;;;;27.17;27.52;97872.70;116167;1179;59910;-78
2021/09/03 11:09:01;;;;;;;5.30;3.40;;;;;;;26.89;28.27;97872.36;116189;1184;71456;-81
2021/09/03 11:11:39;;;;;;;5.70;3.10;;;;;;;26.57;28.11;97873.55;116210;1184;69101;-74
2021/09/03 11:14:30;;;;;;;5.20;3.30;;;;;;;26.87;26.93;97874.41;116207;1183;69015;-80
2021/09/03 11:17:03;;;;;;;6.20;3.20;;;;;;;27.50;25.85;97872.94;116164;1184;59527;-77
2021/09/03 11:19:41;;;;;;;5.70;2.80;;;;;;;26.71;26.70;97870.45;116162;1183;59505;-75
2021/09/03 11:22:18;;;;;;;7.00;3.10;;;;;;;27.28;26.98;97872.51;116207;1183;71368;-79
2021/09/03 11:24:53;;;;;;;5.80;3.10;;;;;;;26.83;27.32;97869.67;116185;1179;69205;-75
2021/09/03 11:27:29;;;;;;;7.00;3.10;;;;;;;26.98;28.17;97874.60;116157;1184;69000;-76
2021/09/03 11:30:02;;;;;;;5.70;2.80;;;;;;;27.76;25.93;97871.99;116179;1183;59567;-77
2021/09/03 11:32:36;;;;;;;4.80;3.00;;;;;;;27.39;25.60;97868.27;116084;1184;59527;-81
2021/09/03 11:35:11;;;;;;;4.70;3.00;;;;;;;27.65;25.78;97862.96;116203;1184;71452;-77
2021/09/03 11:37:48;;;;;;;5.30;3.00;;;;;;;27.76;27.23;97855.71;116173;1182;68212;-80